createdAt,value
2023-05-01T00:00:37.617Z,2.03
2023-05-01T00:03:04.325Z,1.85
2023-05-01T00:05:31.535Z,2.90
2023-05-01T00:07:58.154Z,1.20
2023-05-01T00:10:25.797Z,2.35
2023-05-01T00:12:52.397Z,1.27
2023-05-01T00:15:18.979Z,1.83
2023-05-01T00:17:45.796Z,1.83
2023-05-01T00:20:12.607Z,2.28
2023-05-01T00:22:39.185Z,1.23
2023-05-01T00:25:06.338Z,2.90
2023-05-01T00:27:33.056Z,1.60
2023-05-01T00:30:00.240Z,1.98
2023-05-01T00:32:26.898Z,1.65
2023-05-01T00:34:53.587Z,1.10
2023-05-01T00:37:20.158Z,1.27
2023-05-01T00:39:46.727Z,1.23
2023-05-01T00:42:13.272Z,1.98
2023-05-01T00:44:39.821Z,1.45
2023-05-01T00:47:06.542Z,2.22
2023-05-01T00:49:33.672Z,0.88
2023-05-01T00:52:00.348Z,1.63
2023-05-01T00:54:28.311Z,2.08
2023-05-01T00:56:55.576Z,1.88
2023-05-01T00:59:22.633Z,1.95
2023-05-01T01:01:49.190Z,1.10
2023-05-01T01:04:15.815Z,2.70
2023-05-01T01:07:06.956Z,1.02
2023-05-01T01:09:58.010Z,1.60
2023-05-01T01:12:46.787Z,1.27
2023-05-01T01:15:27.708Z,1.52
2023-05-01T01:18:12.661Z,1.55
2023-05-01T01:20:42.254Z,1.83
2023-05-01T01:23:23.769Z,2.47
2023-05-01T01:26:00.269Z,1.08
2023-05-01T01:28:52.583Z,0.63
2023-05-01T01:31:32.762Z,2.25
2023-05-01T01:44:24.226Z,5.10
2023-05-01T01:50:24.668Z,0.90
2023-05-01T01:56:29.732Z,1.05
2023-05-01T01:59:46.009Z,0.73
2023-05-01T02:02:23.519Z,1.00
2023-05-01T02:05:36.625Z,0.82
2023-05-01T02:11:01.725Z,1.10
2023-05-01T02:14:12.092Z,1.15
2023-05-01T02:17:07.529Z,1.58
2023-05-01T02:20:29.866Z,1.30
2023-05-01T02:23:32.514Z,2.33
2023-05-01T02:26:21.734Z,1.23
2023-05-01T02:28:59.993Z,1.05
2023-05-01T02:32:19.635Z,2.40
2023-05-01T02:38:03.634Z,1.42
2023-05-01T02:44:26.323Z,2.50
2023-05-01T02:50:42.015Z,1.77
2023-05-01T02:53:44.057Z,0.82
2023-05-01T02:56:32.085Z,2.97
2023-05-01T03:08:03.108Z,2.80
2023-05-01T03:12:02.548Z,1.20
2023-05-01T03:13:44.376Z,2.10
2023-05-01T03:19:13.508Z,1.67
2023-05-01T03:21:45.933Z,1.50
2023-05-01T03:24:17.327Z,2.88
2023-05-01T03:27:00.513Z,1.10
2023-05-01T03:29:51.936Z,1.27
2023-05-01T03:32:23.713Z,1.27
2023-05-01T03:35:11.877Z,1.17
2023-05-01T03:38:03.459Z,1.05
2023-05-01T03:41:02.145Z,1.42
2023-05-01T03:43:40.163Z,1.08
2023-05-01T03:46:14.460Z,2.13
2023-05-01T03:48:49.046Z,2.15
2023-05-01T03:51:23.203Z,1.88
2023-05-01T03:54:06.828Z,0.98
2023-05-01T03:56:38.199Z,0.75
2023-05-01T04:05:09.002Z,2.15
2023-05-01T04:10:45.872Z,1.42
2023-05-01T04:16:10.817Z,2.17
2023-05-01T04:18:52.868Z,1.20
2023-05-01T04:21:25.190Z,1.58
2023-05-01T04:24:11.814Z,1.40
2023-05-01T04:26:51.376Z,1.10
2023-05-01T04:29:32.518Z,2.83
2023-05-01T04:35:14.862Z,1.45
2023-05-01T04:40:53.924Z,2.75
2023-05-01T04:43:40.127Z,1.67
2023-05-01T04:58:06.925Z,1.00
2023-05-01T05:12:12.035Z,1.48
2023-05-01T05:14:55.397Z,1.23
2023-05-01T05:17:30.368Z,1.33
2023-05-01T05:29:15.312Z,0.80
2023-05-01T05:38:45.689Z,3.78
2023-05-01T05:44:21.307Z,1.48
2023-05-01T05:47:11.382Z,1.73
2023-05-01T05:49:47.298Z,3.13
2023-05-01T05:52:24.985Z,1.65
2023-05-01T05:54:54.590Z,1.20
2023-05-01T05:57:48.367Z,2.53
2023-05-01T06:03:08.523Z,1.90
2023-05-01T06:05:46.778Z,2.97
2023-05-01T06:08:23.749Z,0.88
2023-05-01T06:11:08.846Z,3.90
2023-05-01T06:16:44.360Z,0.82
2023-05-01T06:19:36.716Z,1.75
2023-05-01T06:28:08.437Z,1.40
2023-05-01T06:30:37.609Z,3.28
2023-05-01T06:33:22.381Z,2.92
2023-05-01T06:39:03.485Z,2.85
2023-05-01T06:41:40.566Z,1.20
2023-05-01T06:49:43.117Z,2.00
2023-05-01T06:52:27.801Z,1.67
2023-05-01T06:55:18.188Z,1.70
2023-05-01T06:58:22.492Z,1.50
2023-05-01T07:01:24.213Z,2.10
2023-05-01T07:03:59.376Z,1.67
2023-05-01T07:06:53.083Z,2.05
2023-05-01T07:09:50.688Z,1.20
2023-05-01T07:12:21.490Z,0.68
2023-05-01T07:14:58.650Z,1.35
2023-05-01T07:17:31.422Z,0.60
2023-05-01T07:20:24.339Z,2.65
2023-05-01T07:25:57.555Z,0.70
2023-05-01T07:28:32.648Z,1.48
2023-05-01T07:31:11.248Z,1.33
2023-05-01T07:34:23.781Z,1.63
2023-05-01T07:40:14.185Z,1.55
2023-05-01T07:42:43.957Z,1.25
2023-05-01T07:46:07.333Z,1.00
2023-05-01T07:48:50.988Z,2.20
2023-05-01T07:54:34.333Z,0.90
2023-05-01T08:02:53.731Z,0.57
2023-05-01T08:05:35.915Z,1.00
2023-05-01T08:08:24.774Z,0.85
2023-05-01T08:17:01.377Z,3.55
2023-05-01T08:19:53.062Z,2.03
2023-05-01T08:22:26.844Z,0.75
2023-05-01T08:24:56.152Z,1.95
2023-05-01T08:27:32.830Z,2.10
2023-05-01T08:30:02.247Z,2.55
2023-05-01T08:32:44.723Z,0.93
2023-05-01T08:35:17.888Z,1.45
2023-05-01T08:40:38.353Z,1.15
2023-05-01T08:43:25.063Z,1.25
2023-05-01T08:50:03.513Z,1.38
2023-05-01T08:52:46.043Z,1.05
2023-05-01T08:55:30.500Z,0.60
2023-05-01T08:58:14.561Z,0.90
2023-05-01T09:03:43.935Z,0.90
2023-05-01T09:14:31.058Z,0.70
2023-05-01T09:17:05.507Z,0.70
2023-05-01T09:19:37.123Z,1.33
2023-05-01T09:22:15.204Z,1.20
2023-05-01T09:24:44.428Z,0.93
2023-05-01T09:28:00.407Z,0.77
2023-05-01T09:30:44.497Z,0.60
2023-05-01T09:33:20.753Z,0.85
2023-05-01T09:36:30.502Z,0.75
2023-05-01T09:42:00.136Z,3.13
2023-05-01T09:44:31.600Z,1.10
2023-05-01T09:47:14.749Z,0.55
2023-05-01T09:49:59.419Z,0.73
2023-05-01T09:52:49.783Z,0.88
2023-05-01T09:55:32.825Z,1.02
2023-05-01T09:58:44.928Z,0.80
2023-05-01T10:01:28.481Z,0.60
2023-05-01T10:03:59.016Z,1.08
2023-05-01T10:06:31.870Z,1.05
2023-05-01T10:09:09.082Z,0.60
2023-05-01T10:18:33.960Z,0.98
2023-05-01T10:21:33.689Z,0.75
2023-05-01T10:24:29.223Z,1.63
2023-05-01T10:27:17.067Z,0.70
2023-05-01T11:15:51.094Z,0.63
2023-05-01T12:36:25.625Z,0.50
2023-05-01T12:39:22.677Z,0.90
2023-05-01T12:42:06.850Z,0.55
2023-05-01T12:48:37.975Z,0.50
2023-05-01T12:51:39.011Z,4.50
2023-05-01T12:54:07.744Z,0.77
2023-05-01T12:56:48.046Z,0.75
2023-05-01T12:59:59.860Z,1.10
2023-05-01T13:03:03.573Z,0.82
2023-05-01T13:05:41.812Z,0.95
2023-05-01T13:08:42.289Z,0.93
2023-05-01T13:17:22.203Z,0.60
2023-05-01T13:23:32.233Z,1.08
2023-05-01T13:26:01.270Z,0.68
2023-05-01T13:28:40.184Z,0.73
2023-05-01T13:32:05.298Z,0.63
2023-05-01T13:34:39.482Z,1.30
2023-05-01T13:40:21.739Z,0.45
2023-05-01T13:46:59.605Z,0.60
2023-05-01T13:49:46.452Z,0.40
2023-05-01T13:53:02.132Z,0.93
2023-05-01T13:55:52.559Z,1.00
2023-05-01T13:58:46.403Z,1.30
2023-05-01T14:01:32.574Z,1.05
2023-05-01T14:10:00.056Z,0.73
2023-05-01T14:15:30.855Z,1.10
2023-05-01T14:21:52.931Z,0.47
2023-05-01T14:28:12.294Z,1.05
2023-05-01T14:39:32.468Z,0.65
2023-05-01T14:42:15.962Z,0.68
2023-05-01T14:44:50.103Z,0.63
2023-05-01T14:50:39.755Z,0.60
2023-05-01T14:59:31.237Z,0.95
2023-05-01T15:02:13.933Z,0.68
2023-05-01T15:05:26.923Z,0.60
2023-05-01T15:11:33.978Z,0.77
2023-05-01T15:14:05.726Z,0.47
2023-05-01T15:16:52.134Z,0.40
2023-05-01T15:22:13.452Z,1.45
2023-05-01T15:25:00.738Z,0.65
2023-05-01T15:28:11.174Z,1.48
2023-05-01T15:31:11.047Z,0.50
2023-05-01T15:34:07.682Z,0.55
2023-05-01T15:36:58.405Z,0.60
2023-05-01T15:42:37.311Z,0.52
2023-05-01T15:48:27.480Z,0.50
2023-05-01T15:54:04.605Z,2.03
2023-05-01T16:05:43.381Z,2.05
2023-05-01T16:08:24.369Z,2.95
2023-05-01T16:11:23.363Z,3.42
2023-05-01T16:14:02.985Z,2.22
2023-05-01T16:17:08.882Z,4.07
2023-05-01T16:20:16.949Z,2.78
2023-05-01T16:22:52.069Z,2.83
2023-05-01T16:25:43.881Z,6.03
2023-05-01T16:31:48.142Z,4.07
2023-05-01T16:42:29.692Z,6.82
2023-05-01T16:45:12.562Z,3.92
2023-05-01T16:47:57.555Z,6.60
2023-05-01T16:50:53.733Z,6.32
2023-05-01T16:53:32.891Z,5.65
2023-05-01T16:59:20.027Z,5.00
2023-05-01T17:02:24.833Z,7.55
2023-05-01T17:15:56.690Z,6.97
2023-05-01T17:18:41.176Z,5.17
2023-05-01T17:24:01.192Z,6.80
2023-05-01T17:37:43.606Z,4.07
2023-05-01T17:40:22.564Z,4.80
2023-05-01T17:44:13.717Z,4.63
2023-05-01T18:10:23.698Z,4.20
2023-05-01T18:20:02.956Z,4.63
2023-05-01T18:31:02.996Z,3.60
2023-05-01T18:33:45.857Z,4.57
2023-05-01T18:36:13.974Z,6.50
2023-05-01T18:41:40.816Z,4.75
2023-05-01T18:45:10.152Z,3.92
2023-05-01T18:47:42.164Z,3.47
2023-05-01T18:54:11.808Z,1.90
2023-05-01T19:02:45.549Z,3.65
2023-05-01T19:11:57.316Z,4.55
2023-05-01T19:14:26.666Z,2.88
2023-05-01T19:28:37.558Z,1.85
2023-05-01T19:31:57.039Z,2.22
2023-05-01T19:38:30.127Z,2.72
2023-05-01T19:40:51.720Z,9.88
2023-05-01T19:46:37.211Z,5.22
2023-05-01T19:49:03.654Z,4.45
2023-05-01T19:51:36.329Z,2.75
2023-05-01T19:54:13.729Z,2.88
2023-05-01T20:05:45.650Z,9.38
2023-05-01T20:08:32.945Z,9.77
2023-05-01T20:14:19.412Z,10.00
2023-05-01T20:16:58.319Z,11.43
2023-05-01T20:22:15.210Z,10.77
2023-05-01T20:24:59.141Z,11.80
2023-05-01T20:31:11.506Z,9.63
2023-05-01T20:41:24.230Z,11.10
2023-05-01T20:50:54.118Z,9.23
2023-05-01T21:06:39.739Z,8.63
2023-05-01T21:09:22.970Z,9.63
2023-05-01T21:11:55.816Z,9.23
2023-05-01T21:14:24.719Z,9.40
2023-05-01T21:22:59.244Z,8.15
2023-05-01T21:25:34.202Z,7.78
2023-05-01T21:28:21.896Z,9.50
2023-05-01T21:31:16.044Z,12.30
2023-05-01T21:34:08.971Z,9.93
2023-05-01T21:40:08.177Z,8.95
2023-05-01T21:45:41.328Z,8.00
2023-05-01T21:48:20.349Z,7.90
2023-05-01T21:50:56.800Z,5.88
2023-05-01T21:53:25.612Z,7.85
2023-05-01T21:56:09.397Z,6.68
2023-05-01T21:58:38.470Z,9.07
2023-05-01T22:01:34.273Z,7.60
2023-05-01T22:04:02.660Z,6.50
2023-05-01T22:06:34.014Z,6.63
2023-05-01T22:09:12.297Z,7.88
2023-05-01T22:11:52.580Z,7.25
2023-05-01T22:14:30.867Z,7.65
2023-05-01T22:17:08.788Z,7.25
2023-05-01T22:19:37.386Z,7.97
2023-05-01T22:22:13.746Z,8.90
2023-05-01T22:24:42.662Z,7.07
2023-05-01T22:27:19.478Z,5.75
2023-05-01T22:29:48.665Z,7.00
2023-05-01T22:32:28.870Z,6.63
2023-05-01T22:35:23.927Z,5.55
2023-05-01T22:38:09.538Z,7.93
2023-05-01T22:43:19.572Z,7.78
2023-05-01T22:46:18.748Z,7.72
2023-05-01T22:48:51.663Z,9.68
2023-05-01T22:51:47.313Z,7.85
2023-05-01T22:54:19.365Z,7.45
2023-05-01T22:57:43.908Z,7.57
2023-05-01T23:01:01.329Z,7.05
2023-05-01T23:07:48.179Z,8.50
2023-05-01T23:10:30.332Z,8.75
2023-05-01T23:13:02.641Z,9.55
2023-05-01T23:15:43.861Z,6.93
2023-05-01T23:18:56.934Z,8.18
2023-05-01T23:21:26.775Z,7.47
2023-05-01T23:23:56.403Z,7.80
2023-05-01T23:26:50.236Z,6.32
2023-05-01T23:32:13.927Z,5.25
2023-05-01T23:35:00.892Z,6.72
2023-05-01T23:37:59.150Z,6.57
2023-05-01T23:40:28.382Z,4.07
2023-05-01T23:43:05.232Z,5.05
2023-05-01T23:45:38.393Z,4.57
2023-05-01T23:48:12.549Z,4.65
